sensor_id;sensor_type;location;lat;lon;timestamp;temperature;humidity
23560;DHT22;11958;50.836;4.438;2022-12-18T00:01:24;-3.20;79.70
23560;DHT22;11958;50.836;4.438;2022-12-18T00:03:52;-3.40;78.90
23560;DHT22;11958;50.836;4.438;2022-12-18T00:06:18;-3.50;79.40
23560;DHT22;11958;50.836;4.438;2022-12-18T00:08:44;-3.70;79.70
23560;DHT22;11958;50.836;4.438;2022-12-18T00:11:21;-3.80;80.00
23560;DHT22;11958;50.836;4.438;2022-12-18T00:13:48;-4.00;80.70
23560;DHT22;11958;50.836;4.438;2022-12-18T00:16:16;-4.20;80.90
23560;DHT22;11958;50.836;4.438;2022-12-18T00:18:42;-4.20;81.10
23560;DHT22;11958;50.836;4.438;2022-12-18T00:21:09;-4.30;81.20
23560;DHT22;11958;50.836;4.438;2022-12-18T00:23:37;-4.20;81.10
23560;DHT22;11958;50.836;4.438;2022-12-18T00:26:06;-4.00;80.90
23560;DHT22;11958;50.836;4.438;2022-12-18T00:28:32;-3.60;79.80
23560;DHT22;11958;50.836;4.438;2022-12-18T00:31:04;-3.30;78.40
23560;DHT22;11958;50.836;4.438;2022-12-18T00:33:30;-3.40;78.20
23560;DHT22;11958;50.836;4.438;2022-12-18T00:36:04;-3.60;77.40
23560;DHT22;11958;50.836;4.438;2022-12-18T00:38:30;-3.60;78.20
23560;DHT22;11958;50.836;4.438;2022-12-18T00:40:55;-3.90;78.80
23560;DHT22;11958;50.836;4.438;2022-12-18T00:43:21;-4.00;79.50
23560;DHT22;11958;50.836;4.438;2022-12-18T00:45:47;-4.10;79.40
23560;DHT22;11958;50.836;4.438;2022-12-18T00:48:12;-4.00;79.50
23560;DHT22;11958;50.836;4.438;2022-12-18T00:50:38;-4.30;80.00
23560;DHT22;11958;50.836;4.438;2022-12-18T00:53:04;-4.50;80.50
23560;DHT22;11958;50.836;4.438;2022-12-18T00:55:30;-4.30;80.40
23560;DHT22;11958;50.836;4.438;2022-12-18T00:57:55;-4.50;80.30
23560;DHT22;11958;50.836;4.438;2022-12-18T01:00:21;-4.50;80.50
23560;DHT22;11958;50.836;4.438;2022-12-18T01:02:47;-4.50;80.50
23560;DHT22;11958;50.836;4.438;2022-12-18T01:05:13;-4.40;80.60
23560;DHT22;11958;50.836;4.438;2022-12-18T01:07:39;-4.50;80.60
23560;DHT22;11958;50.836;4.438;2022-12-18T01:10:06;-4.30;81.00
23560;DHT22;11958;50.836;4.438;2022-12-18T01:12:32;-4.30;80.10
23560;DHT22;11958;50.836;4.438;2022-12-18T01:14:58;-4.40;80.00
23560;DHT22;11958;50.836;4.438;2022-12-18T01:17:24;-4.50;80.10
23560;DHT22;11958;50.836;4.438;2022-12-18T01:19:50;-4.50;80.10
23560;DHT22;11958;50.836;4.438;2022-12-18T01:22:15;-4.60;80.40
23560;DHT22;11958;50.836;4.438;2022-12-18T01:24:41;-4.40;80.30
23560;DHT22;11958;50.836;4.438;2022-12-18T01:27:07;-4.50;80.20
23560;DHT22;11958;50.836;4.438;2022-12-18T01:29:32;-4.40;79.80
23560;DHT22;11958;50.836;4.438;2022-12-18T01:31:58;-4.60;80.50
23560;DHT22;11958;50.836;4.438;2022-12-18T01:34:24;-4.60;80.60
23560;DHT22;11958;50.836;4.438;2022-12-18T01:36:50;-4.70;80.40
23560;DHT22;11958;50.836;4.438;2022-12-18T01:39:18;-4.50;79.90
23560;DHT22;11958;50.836;4.438;2022-12-18T01:41:44;-4.60;79.50
23560;DHT22;11958;50.836;4.438;2022-12-18T01:47:58;-4.60;80.00
23560;DHT22;11958;50.836;4.438;2022-12-18T01:50:36;-4.60;79.40
23560;DHT22;11958;50.836;4.438;2022-12-18T01:53:22;-4.70;79.60
23560;DHT22;11958;50.836;4.438;2022-12-18T01:55:53;-4.70;79.50
23560;DHT22;11958;50.836;4.438;2022-12-18T01:58:21;-4.50;79.80
23560;DHT22;11958;50.836;4.438;2022-12-18T02:00:48;-4.30;78.70
23560;DHT22;11958;50.836;4.438;2022-12-18T02:03:14;-4.70;79.10
23560;DHT22;11958;50.836;4.438;2022-12-18T02:05:55;-4.80;79.70
23560;DHT22;11958;50.836;4.438;2022-12-18T02:14:18;-4.90;80.30
23560;DHT22;11958;50.836;4.438;2022-12-18T02:22:26;-4.90;80.20
23560;DHT22;11958;50.836;4.438;2022-12-18T02:27:50;-4.80;79.90
23560;DHT22;11958;50.836;4.438;2022-12-18T02:30:17;-4.90;80.10
23560;DHT22;11958;50.836;4.438;2022-12-18T02:32:50;-4.90;80.50
23560;DHT22;11958;50.836;4.438;2022-12-18T02:35:20;-4.80;80.70
23560;DHT22;11958;50.836;4.438;2022-12-18T02:37:48;-4.80;80.00
23560;DHT22;11958;50.836;4.438;2022-12-18T02:40:15;-5.00;80.10
23560;DHT22;11958;50.836;4.438;2022-12-18T02:42:43;-5.00;80.10
23560;DHT22;11958;50.836;4.438;2022-12-18T02:45:09;-5.10;80.30
23560;DHT22;11958;50.836;4.438;2022-12-18T02:47:42;-5.10;80.30
23560;DHT22;11958;50.836;4.438;2022-12-18T02:50:38;-4.80;80.00
23560;DHT22;11958;50.836;4.438;2022-12-18T02:53:22;-4.60;78.80
23560;DHT22;11958;50.836;4.438;2022-12-18T02:58:52;-5.10;78.60
23560;DHT22;11958;50.836;4.438;2022-12-18T03:04:18;-4.70;78.50
23560;DHT22;11958;50.836;4.438;2022-12-18T03:06:49;-4.90;78.70
23560;DHT22;11958;50.836;4.438;2022-12-18T03:09:24;-5.10;79.00
23560;DHT22;11958;50.836;4.438;2022-12-18T03:11:57;-5.10;79.20
23560;DHT22;11958;50.836;4.438;2022-12-18T03:14:43;-5.20;79.40
23560;DHT22;11958;50.836;4.438;2022-12-18T03:17:10;-5.20;79.30
23560;DHT22;11958;50.836;4.438;2022-12-18T03:19:39;-5.20;79.10
23560;DHT22;11958;50.836;4.438;2022-12-18T03:22:07;-5.20;79.30
23560;DHT22;11958;50.836;4.438;2022-12-18T03:24:35;-5.40;79.20
23560;DHT22;11958;50.836;4.438;2022-12-18T03:27:09;-5.50;79.60
23560;DHT22;11958;50.836;4.438;2022-12-18T03:29:38;-5.40;79.50
23560;DHT22;11958;50.836;4.438;2022-12-18T03:32:25;-5.20;79.70
23560;DHT22;11958;50.836;4.438;2022-12-18T03:34:56;-4.90;78.50
23560;DHT22;11958;50.836;4.438;2022-12-18T03:37:23;-4.90;77.50
23560;DHT22;11958;50.836;4.438;2022-12-18T03:39:48;-5.10;77.90
23560;DHT22;11958;50.836;4.438;2022-12-18T03:44:52;-5.20;78.80
23560;DHT22;11958;50.836;4.438;2022-12-18T03:47:47;-5.30;79.50
23560;DHT22;11958;50.836;4.438;2022-12-18T03:50:32;-5.40;79.80
23560;DHT22;11958;50.836;4.438;2022-12-18T03:55:48;-5.50;80.00
23560;DHT22;11958;50.836;4.438;2022-12-18T03:58:18;-5.40;79.50
23560;DHT22;11958;50.836;4.438;2022-12-18T04:00:45;-5.30;79.00
23560;DHT22;11958;50.836;4.438;2022-12-18T04:03:13;-5.30;78.90
23560;DHT22;11958;50.836;4.438;2022-12-18T04:05:42;-5.40;79.30
23560;DHT22;11958;50.836;4.438;2022-12-18T04:08:09;-5.60;79.50
23560;DHT22;11958;50.836;4.438;2022-12-18T04:10:35;-5.70;79.80
23560;DHT22;11958;50.836;4.438;2022-12-18T04:13:00;-5.50;80.10
23560;DHT22;11958;50.836;4.438;2022-12-18T04:15:26;-5.10;78.60
23560;DHT22;11958;50.836;4.438;2022-12-18T04:17:52;-5.20;77.80
23560;DHT22;11958;50.836;4.438;2022-12-18T04:20:18;-5.40;78.20
23560;DHT22;11958;50.836;4.438;2022-12-18T04:22:43;-5.50;78.80
23560;DHT22;11958;50.836;4.438;2022-12-18T04:25:09;-5.60;78.90
23560;DHT22;11958;50.836;4.438;2022-12-18T04:27:34;-5.60;79.00
23560;DHT22;11958;50.836;4.438;2022-12-18T04:30:00;-5.40;78.50
23560;DHT22;11958;50.836;4.438;2022-12-18T04:32:26;-5.50;78.70
23560;DHT22;11958;50.836;4.438;2022-12-18T04:34:52;-5.30;78.40
23560;DHT22;11958;50.836;4.438;2022-12-18T04:37:18;-5.20;77.20
23560;DHT22;11958;50.836;4.438;2022-12-18T04:39:43;-5.10;76.50
23560;DHT22;11958;50.836;4.438;2022-12-18T04:42:09;-4.90;76.50
23560;DHT22;11958;50.836;4.438;2022-12-18T04:44:34;-5.10;76.10
23560;DHT22;11958;50.836;4.438;2022-12-18T04:47:01;-5.20;76.70
23560;DHT22;11958;50.836;4.438;2022-12-18T04:49:26;-5.30;77.30
23560;DHT22;11958;50.836;4.438;2022-12-18T04:51:52;-5.10;76.60
23560;DHT22;11958;50.836;4.438;2022-12-18T04:54:18;-5.30;76.50
23560;DHT22;11958;50.836;4.438;2022-12-18T04:56:44;-5.40;76.60
23560;DHT22;11958;50.836;4.438;2022-12-18T04:59:09;-5.40;77.40
23560;DHT22;11958;50.836;4.438;2022-12-18T05:01:35;-5.60;77.20
23560;DHT22;11958;50.836;4.438;2022-12-18T05:04:01;-5.60;77.80
23560;DHT22;11958;50.836;4.438;2022-12-18T05:06:27;-5.60;78.40
23560;DHT22;11958;50.836;4.438;2022-12-18T05:08:53;-5.50;78.40
23560;DHT22;11958;50.836;4.438;2022-12-18T05:11:19;-5.60;78.30
23560;DHT22;11958;50.836;4.438;2022-12-18T05:13:45;-5.70;77.90
23560;DHT22;11958;50.836;4.438;2022-12-18T05:16:11;-5.80;78.10
23560;DHT22;11958;50.836;4.438;2022-12-18T05:18:37;-5.70;78.40
23560;DHT22;11958;50.836;4.438;2022-12-18T05:21:04;-5.50;78.50
23560;DHT22;11958;50.836;4.438;2022-12-18T05:23:30;-5.30;77.10
23560;DHT22;11958;50.836;4.438;2022-12-18T05:25:59;-5.00;75.30
23560;DHT22;11958;50.836;4.438;2022-12-18T05:28:26;-5.30;76.00
23560;DHT22;11958;50.836;4.438;2022-12-18T05:30:54;-5.50;77.10
23560;DHT22;11958;50.836;4.438;2022-12-18T05:33:22;-5.60;77.60
23560;DHT22;11958;50.836;4.438;2022-12-18T05:35:52;-5.70;78.10
23560;DHT22;11958;50.836;4.438;2022-12-18T05:38:19;-5.70;78.00
23560;DHT22;11958;50.836;4.438;2022-12-18T05:40:45;-5.80;78.10
23560;DHT22;11958;50.836;4.438;2022-12-18T05:43:11;-6.00;78.30
23560;DHT22;11958;50.836;4.438;2022-12-18T05:45:40;-6.00;78.50
23560;DHT22;11958;50.836;4.438;2022-12-18T05:48:06;-5.90;78.30
23560;DHT22;11958;50.836;4.438;2022-12-18T05:50:36;-5.90;78.70
23560;DHT22;11958;50.836;4.438;2022-12-18T05:53:03;-6.00;78.60
23560;DHT22;11958;50.836;4.438;2022-12-18T05:55:32;-5.90;78.50
23560;DHT22;11958;50.836;4.438;2022-12-18T05:57:57;-5.90;78.70
23560;DHT22;11958;50.836;4.438;2022-12-18T06:00:23;-5.70;77.90
23560;DHT22;11958;50.836;4.438;2022-12-18T06:02:49;-5.70;78.10
23560;DHT22;11958;50.836;4.438;2022-12-18T06:05:14;-5.70;77.80
23560;DHT22;11958;50.836;4.438;2022-12-18T06:07:40;-5.60;76.90
23560;DHT22;11958;50.836;4.438;2022-12-18T06:10:08;-5.40;76.90
23560;DHT22;11958;50.836;4.438;2022-12-18T06:12:34;-5.60;76.10
23560;DHT22;11958;50.836;4.438;2022-12-18T06:15:00;-5.50;76.10
23560;DHT22;11958;50.836;4.438;2022-12-18T06:17:30;-5.40;76.50
23560;DHT22;11958;50.836;4.438;2022-12-18T06:20:08;-5.40;76.30
23560;DHT22;11958;50.836;4.438;2022-12-18T06:22:55;-5.10;76.20
23560;DHT22;11958;50.836;4.438;2022-12-18T06:25:24;-5.30;75.90
23560;DHT22;11958;50.836;4.438;2022-12-18T06:27:55;-5.10;75.80
23560;DHT22;11958;50.836;4.438;2022-12-18T06:30:22;-5.10;75.50
23560;DHT22;11958;50.836;4.438;2022-12-18T06:32:59;-5.40;75.90
23560;DHT22;11958;50.836;4.438;2022-12-18T06:35:27;-5.60;77.50
23560;DHT22;11958;50.836;4.438;2022-12-18T06:37:53;-5.60;77.90
23560;DHT22;11958;50.836;4.438;2022-12-18T07:42:39;-5.50;77.90
23560;DHT22;11958;50.836;4.438;2022-12-18T07:45:05;-5.00;77.20
23560;DHT22;11958;50.836;4.438;2022-12-18T07:47:31;-5.10;76.70
23560;DHT22;11958;50.836;4.438;2022-12-18T07:49:59;-5.10;77.60
23560;DHT22;11958;50.836;4.438;2022-12-18T07:52:24;-5.00;77.40
23560;DHT22;11958;50.836;4.438;2022-12-18T07:54:50;-4.90;77.20
23560;DHT22;11958;50.836;4.438;2022-12-18T07:57:16;-4.90;77.10
23560;DHT22;11958;50.836;4.438;2022-12-18T07:59:42;-4.50;76.40
23560;DHT22;11958;50.836;4.438;2022-12-18T08:02:08;-4.60;76.40
23560;DHT22;11958;50.836;4.438;2022-12-18T08:04:33;-4.50;76.00
23560;DHT22;11958;50.836;4.438;2022-12-18T08:06:59;-4.70;76.70
23560;DHT22;11958;50.836;4.438;2022-12-18T08:09:25;-4.40;77.30
23560;DHT22;11958;50.836;4.438;2022-12-18T08:11:50;-4.40;76.60
23560;DHT22;11958;50.836;4.438;2022-12-18T08:14:16;-4.50;76.90
23560;DHT22;11958;50.836;4.438;2022-12-18T08:16:42;-4.40;76.50
23560;DHT22;11958;50.836;4.438;2022-12-18T08:19:07;-4.30;77.00
23560;DHT22;11958;50.836;4.438;2022-12-18T08:21:33;-4.30;76.70
23560;DHT22;11958;50.836;4.438;2022-12-18T08:24:00;-4.10;76.40
23560;DHT22;11958;50.836;4.438;2022-12-18T08:26:28;-4.00;76.90
23560;DHT22;11958;50.836;4.438;2022-12-18T08:28:55;-4.00;76.30
23560;DHT22;11958;50.836;4.438;2022-12-18T08:31:22;-3.90;76.60
23560;DHT22;11958;50.836;4.438;2022-12-18T08:33:49;-3.80;76.80
23560;DHT22;11958;50.836;4.438;2022-12-18T08:36:15;-3.60;76.90
23560;DHT22;11958;50.836;4.438;2022-12-18T08:38:41;-3.50;76.80
23560;DHT22;11958;50.836;4.438;2022-12-18T08:41:09;-3.40;76.80
23560;DHT22;11958;50.836;4.438;2022-12-18T08:43:35;-3.10;76.80
23560;DHT22;11958;50.836;4.438;2022-12-18T08:46:21;-3.00;74.80
23560;DHT22;11958;50.836;4.438;2022-12-18T08:48:50;-2.90;75.20
23560;DHT22;11958;50.836;4.438;2022-12-18T08:51:16;-2.80;75.50
23560;DHT22;11958;50.836;4.438;2022-12-18T08:53:42;-2.80;75.30
23560;DHT22;11958;50.836;4.438;2022-12-18T09:43:58;-2.50;75.10
23560;DHT22;11958;50.836;4.438;2022-12-18T09:46:39;-0.90;72.20
23560;DHT22;11958;50.836;4.438;2022-12-18T09:49:13;-0.90;72.60
23560;DHT22;11958;50.836;4.438;2022-12-18T09:54:22;-0.60;72.10
23560;DHT22;11958;50.836;4.438;2022-12-18T09:56:56;-0.60;71.70
23560;DHT22;11958;50.836;4.438;2022-12-18T10:59:17;0.90;63.00
23560;DHT22;11958;50.836;4.438;2022-12-18T11:04:24;0.60;64.00
23560;DHT22;11958;50.836;4.438;2022-12-18T11:07:00;1.10;62.60
23560;DHT22;11958;50.836;4.438;2022-12-18T11:09:37;0.80;61.40
23560;DHT22;11958;50.836;4.438;2022-12-18T11:12:35;0.50;63.10
23560;DHT22;11958;50.836;4.438;2022-12-18T11:15:01;0.80;63.40
23560;DHT22;11958;50.836;4.438;2022-12-18T11:17:37;0.90;64.80
23560;DHT22;11958;50.836;4.438;2022-12-18T11:20:07;0.90;64.60
23560;DHT22;11958;50.836;4.438;2022-12-18T11:22:58;1.20;61.20
23560;DHT22;11958;50.836;4.438;2022-12-18T11:25:25;1.10;62.80
23560;DHT22;11958;50.836;4.438;2022-12-18T11:28:00;1.10;63.00
23560;DHT22;11958;50.836;4.438;2022-12-18T11:30:30;0.90;62.80
23560;DHT22;11958;50.836;4.438;2022-12-18T11:33:04;1.00;63.90
23560;DHT22;11958;50.836;4.438;2022-12-18T11:35:58;1.10;63.90
23560;DHT22;11958;50.836;4.438;2022-12-18T11:38:39;1.10;63.40
23560;DHT22;11958;50.836;4.438;2022-12-18T11:58:57;1.30;65.70
23560;DHT22;11958;50.836;4.438;2022-12-18T12:08:12;1.70;63.30
23560;DHT22;11958;50.836;4.438;2022-12-18T12:16:40;2.00;60.70
23560;DHT22;11958;50.836;4.438;2022-12-18T12:19:59;2.10;60.40
23560;DHT22;11958;50.836;4.438;2022-12-18T12:22:43;2.10;61.10
23560;DHT22;11958;50.836;4.438;2022-12-18T12:30:38;2.10;59.00
23560;DHT22;11958;50.836;4.438;2022-12-18T12:38:41;1.80;60.90
23560;DHT22;11958;50.836;4.438;2022-12-18T12:41:14;1.90;60.30
23560;DHT22;11958;50.836;4.438;2022-12-18T12:44:02;1.80;61.70
23560;DHT22;11958;50.836;4.438;2022-12-18T12:46:31;1.90;61.30
23560;DHT22;11958;50.836;4.438;2022-12-18T12:49:02;1.90;61.50
23560;DHT22;11958;50.836;4.438;2022-12-18T12:51:37;1.90;61.80
23560;DHT22;11958;50.836;4.438;2022-12-18T12:54:09;2.10;61.20
23560;DHT22;11958;50.836;4.438;2022-12-18T12:59:34;2.10;58.60
23560;DHT22;11958;50.836;4.438;2022-12-18T13:04:53;2.20;59.00
23560;DHT22;11958;50.836;4.438;2022-12-18T13:07:28;2.30;59.80
23560;DHT22;11958;50.836;4.438;2022-12-18T13:10:24;2.10;58.90
23560;DHT22;11958;50.836;4.438;2022-12-18T13:13:11;2.00;60.90
23560;DHT22;11958;50.836;4.438;2022-12-18T13:20:43;2.00;62.60
23560;DHT22;11958;50.836;4.438;2022-12-18T13:34:26;2.10;61.50
23560;DHT22;11958;50.836;4.438;2022-12-18T13:36:53;2.30;61.30
23560;DHT22;11958;50.836;4.438;2022-12-18T13:45:39;2.20;59.20
23560;DHT22;11958;50.836;4.438;2022-12-18T13:48:19;2.30;61.00
23560;DHT22;11958;50.836;4.438;2022-12-18T13:50:56;2.20;59.50
23560;DHT22;11958;50.836;4.438;2022-12-18T13:53:27;2.10;60.80
23560;DHT22;11958;50.836;4.438;2022-12-18T13:55:53;1.70;60.50
23560;DHT22;11958;50.836;4.438;2022-12-18T13:58:19;1.60;61.40
23560;DHT22;11958;50.836;4.438;2022-12-18T14:00:45;1.90;60.30
23560;DHT22;11958;50.836;4.438;2022-12-18T14:03:25;2.00;61.60
23560;DHT22;11958;50.836;4.438;2022-12-18T14:06:00;1.70;61.50
23560;DHT22;11958;50.836;4.438;2022-12-18T14:08:33;1.70;62.30
23560;DHT22;11958;50.836;4.438;2022-12-18T14:11:01;1.70;61.10
23560;DHT22;11958;50.836;4.438;2022-12-18T14:51:16;1.40;61.10
23560;DHT22;11958;50.836;4.438;2022-12-18T14:53:47;1.50;62.10
23560;DHT22;11958;50.836;4.438;2022-12-18T14:56:18;1.60;62.20
23560;DHT22;11958;50.836;4.438;2022-12-18T14:58:55;1.80;61.10
23560;DHT22;11958;50.836;4.438;2022-12-18T15:04:34;1.70;61.00
23560;DHT22;11958;50.836;4.438;2022-12-18T15:07:18;1.50;62.10
23560;DHT22;11958;50.836;4.438;2022-12-18T15:12:45;1.50;62.00
23560;DHT22;11958;50.836;4.438;2022-12-18T15:20:54;1.40;63.50
23560;DHT22;11958;50.836;4.438;2022-12-18T15:26:11;1.30;63.30
23560;DHT22;11958;50.836;4.438;2022-12-18T15:28:38;1.50;64.00
23560;DHT22;11958;50.836;4.438;2022-12-18T15:33:41;1.50;63.00
23560;DHT22;11958;50.836;4.438;2022-12-18T15:36:15;1.70;63.00
23560;DHT22;11958;50.836;4.438;2022-12-18T15:38:41;1.60;62.70
23560;DHT22;11958;50.836;4.438;2022-12-18T15:41:17;1.50;62.10
23560;DHT22;11958;50.836;4.438;2022-12-18T15:43:43;1.60;61.00
23560;DHT22;11958;50.836;4.438;2022-12-18T15:46:29;1.60;61.30
23560;DHT22;11958;50.836;4.438;2022-12-18T15:48:56;1.70;60.70
23560;DHT22;11958;50.836;4.438;2022-12-18T15:51:37;1.50;62.50
23560;DHT22;11958;50.836;4.438;2022-12-18T15:54:08;1.30;61.70
23560;DHT22;11958;50.836;4.438;2022-12-18T15:56:37;1.60;62.50
23560;DHT22;11958;50.836;4.438;2022-12-18T15:59:22;1.70;60.90
23560;DHT22;11958;50.836;4.438;2022-12-18T16:01:51;1.70;60.00
23560;DHT22;11958;50.836;4.438;2022-12-18T16:04:25;1.60;60.90
23560;DHT22;11958;50.836;4.438;2022-12-18T16:06:51;2.20;59.80
23560;DHT22;11958;50.836;4.438;2022-12-18T16:09:17;2.00;59.30
23560;DHT22;11958;50.836;4.438;2022-12-18T16:11:45;1.90;59.10
23560;DHT22;11958;50.836;4.438;2022-12-18T16:14:24;1.80;60.20
23560;DHT22;11958;50.836;4.438;2022-12-18T16:16:55;2.00;58.50
23560;DHT22;11958;50.836;4.438;2022-12-18T16:19:21;2.00;58.40
23560;DHT22;11958;50.836;4.438;2022-12-18T16:21:48;1.80;60.30
23560;DHT22;11958;50.836;4.438;2022-12-18T16:24:20;1.70;60.30
23560;DHT22;11958;50.836;4.438;2022-12-18T16:26:49;1.70;59.30
23560;DHT22;11958;50.836;4.438;2022-12-18T16:29:17;1.80;59.20
23560;DHT22;11958;50.836;4.438;2022-12-18T16:31:43;2.00;57.90
23560;DHT22;11958;50.836;4.438;2022-12-18T16:34:21;1.90;59.70
23560;DHT22;11958;50.836;4.438;2022-12-18T16:36:50;1.60;59.00
23560;DHT22;11958;50.836;4.438;2022-12-18T16:39:19;1.50;60.50
23560;DHT22;11958;50.836;4.438;2022-12-18T16:41:45;1.70;61.40
23560;DHT22;11958;50.836;4.438;2022-12-18T16:44:12;1.90;61.50
23560;DHT22;11958;50.836;4.438;2022-12-18T16:46:38;1.80;59.30
23560;DHT22;11958;50.836;4.438;2022-12-18T16:49:04;1.90;60.30
23560;DHT22;11958;50.836;4.438;2022-12-18T16:51:30;2.00;59.40
23560;DHT22;11958;50.836;4.438;2022-12-18T16:53:56;2.00;59.90
23560;DHT22;11958;50.836;4.438;2022-12-18T16:56:22;2.10;58.30
23560;DHT22;11958;50.836;4.438;2022-12-18T16:58:58;2.00;59.30
23560;DHT22;11958;50.836;4.438;2022-12-18T17:01:25;2.00;59.80
23560;DHT22;11958;50.836;4.438;2022-12-18T17:03:58;1.90;58.30
23560;DHT22;11958;50.836;4.438;2022-12-18T17:06:26;1.80;58.60
23560;DHT22;11958;50.836;4.438;2022-12-18T17:09:00;1.60;59.60
23560;DHT22;11958;50.836;4.438;2022-12-18T17:11:27;1.90;58.50
23560;DHT22;11958;50.836;4.438;2022-12-18T17:13:53;1.90;59.70
23560;DHT22;11958;50.836;4.438;2022-12-18T17:16:19;1.70;59.10
23560;DHT22;11958;50.836;4.438;2022-12-18T17:18:45;1.80;59.70
23560;DHT22;11958;50.836;4.438;2022-12-18T17:21:12;1.80;59.60
23560;DHT22;11958;50.836;4.438;2022-12-18T17:23:42;1.90;60.90
23560;DHT22;11958;50.836;4.438;2022-12-18T17:26:09;2.00;60.90
23560;DHT22;11958;50.836;4.438;2022-12-18T17:28:36;1.80;60.70
23560;DHT22;11958;50.836;4.438;2022-12-18T17:31:16;1.80;61.10
23560;DHT22;11958;50.836;4.438;2022-12-18T17:33:42;2.00;60.80
23560;DHT22;11958;50.836;4.438;2022-12-18T17:36:08;2.10;60.80
23560;DHT22;11958;50.836;4.438;2022-12-18T17:38:34;2.30;60.00
23560;DHT22;11958;50.836;4.438;2022-12-18T17:41:04;2.30;61.50
23560;DHT22;11958;50.836;4.438;2022-12-18T17:43:30;2.10;62.70
23560;DHT22;11958;50.836;4.438;2022-12-18T17:46:00;2.00;62.50
23560;DHT22;11958;50.836;4.438;2022-12-18T17:48:25;1.80;63.50
23560;DHT22;11958;50.836;4.438;2022-12-18T17:50:51;2.00;66.10
23560;DHT22;11958;50.836;4.438;2022-12-18T17:53:17;1.60;66.70
23560;DHT22;11958;50.836;4.438;2022-12-18T17:55:42;1.80;68.30
23560;DHT22;11958;50.836;4.438;2022-12-18T17:58:08;1.60;69.50
23560;DHT22;11958;50.836;4.438;2022-12-18T18:00:34;1.70;67.70
23560;DHT22;11958;50.836;4.438;2022-12-18T18:02:59;1.90;68.30
23560;DHT22;11958;50.836;4.438;2022-12-18T18:05:25;1.70;70.50
23560;DHT22;11958;50.836;4.438;2022-12-18T18:07:51;1.80;72.00
23560;DHT22;11958;50.836;4.438;2022-12-18T18:10:17;1.70;73.00
23560;DHT22;11958;50.836;4.438;2022-12-18T18:12:45;1.50;74.80
23560;DHT22;11958;50.836;4.438;2022-12-18T18:15:30;1.60;75.10
23560;DHT22;11958;50.836;4.438;2022-12-18T18:18:09;1.40;75.90
23560;DHT22;11958;50.836;4.438;2022-12-18T18:20:39;1.30;75.80
23560;DHT22;11958;50.836;4.438;2022-12-18T18:23:05;1.20;76.90
23560;DHT22;11958;50.836;4.438;2022-12-18T18:25:37;1.50;77.60
23560;DHT22;11958;50.836;4.438;2022-12-18T18:28:06;1.30;78.70
23560;DHT22;11958;50.836;4.438;2022-12-18T18:30:44;1.40;78.50
23560;DHT22;11958;50.836;4.438;2022-12-18T18:33:17;1.50;78.40
23560;DHT22;11958;50.836;4.438;2022-12-18T18:36:10;1.30;78.00
23560;DHT22;11958;50.836;4.438;2022-12-18T18:38:47;1.60;79.00
23560;DHT22;11958;50.836;4.438;2022-12-18T18:41:43;1.70;77.50
23560;DHT22;11958;50.836;4.438;2022-12-18T19:12:02;1.60;81.00
23560;DHT22;11958;50.836;4.438;2022-12-18T19:15:00;1.40;82.20
23560;DHT22;11958;50.836;4.438;2022-12-18T19:17:43;1.70;82.20
23560;DHT22;11958;50.836;4.438;2022-12-18T19:20:09;1.70;82.20
23560;DHT22;11958;50.836;4.438;2022-12-18T19:22:37;1.50;82.50
23560;DHT22;11958;50.836;4.438;2022-12-18T19:25:03;1.80;82.90
23560;DHT22;11958;50.836;4.438;2022-12-18T19:27:31;1.60;83.30
23560;DHT22;11958;50.836;4.438;2022-12-18T19:29:57;1.80;83.50
23560;DHT22;11958;50.836;4.438;2022-12-18T19:32:23;1.90;82.90
23560;DHT22;11958;50.836;4.438;2022-12-18T19:34:56;1.60;83.90
23560;DHT22;11958;50.836;4.438;2022-12-18T19:37:24;1.70;84.20
23560;DHT22;11958;50.836;4.438;2022-12-18T19:42:40;1.80;85.00
23560;DHT22;11958;50.836;4.438;2022-12-18T19:45:06;1.50;84.60
23560;DHT22;11958;50.836;4.438;2022-12-18T19:47:36;1.80;84.70
23560;DHT22;11958;50.836;4.438;2022-12-18T19:50:05;1.70;84.90
23560;DHT22;11958;50.836;4.438;2022-12-18T19:52:39;1.70;84.70
23560;DHT22;11958;50.836;4.438;2022-12-18T20:38:17;1.80;86.80
23560;DHT22;11958;50.836;4.438;2022-12-18T20:44:48;2.20;86.00
23560;DHT22;11958;50.836;4.438;2022-12-18T21:07:41;2.50;85.60
23560;DHT22;11958;50.836;4.438;2022-12-18T21:10:10;2.20;85.30
23560;DHT22;11958;50.836;4.438;2022-12-18T21:13:02;2.50;85.40
23560;DHT22;11958;50.836;4.438;2022-12-18T21:39:45;2.60;86.10
23560;DHT22;11958;50.836;4.438;2022-12-18T21:42:11;2.50;86.50
23560;DHT22;11958;50.836;4.438;2022-12-18T21:44:55;2.50;87.30
23560;DHT22;11958;50.836;4.438;2022-12-18T21:47:21;2.50;87.00
23560;DHT22;11958;50.836;4.438;2022-12-18T21:49:46;2.40;86.70
23560;DHT22;11958;50.836;4.438;2022-12-18T21:52:12;2.50;87.40
23560;DHT22;11958;50.836;4.438;2022-12-18T21:54:38;2.60;87.30
23560;DHT22;11958;50.836;4.438;2022-12-18T21:57:04;2.60;87.70
23560;DHT22;11958;50.836;4.438;2022-12-18T21:59:36;2.70;87.70
23560;DHT22;11958;50.836;4.438;2022-12-18T22:04:36;2.60;88.20
23560;DHT22;11958;50.836;4.438;2022-12-18T22:07:03;2.80;88.00
23560;DHT22;11958;50.836;4.438;2022-12-18T22:09:29;2.70;87.50
23560;DHT22;11958;50.836;4.438;2022-12-18T22:11:55;2.40;88.60
23560;DHT22;11958;50.836;4.438;2022-12-18T22:14:21;2.70;88.20
23560;DHT22;11958;50.836;4.438;2022-12-18T22:16:48;2.90;88.50
23560;DHT22;11958;50.836;4.438;2022-12-18T22:19:14;3.00;88.00
23560;DHT22;11958;50.836;4.438;2022-12-18T22:21:42;2.60;88.20
23560;DHT22;11958;50.836;4.438;2022-12-18T22:24:14;2.70;88.30
23560;DHT22;11958;50.836;4.438;2022-12-18T22:26:40;3.00;88.40
23560;DHT22;11958;50.836;4.438;2022-12-18T22:29:08;3.00;88.30
23560;DHT22;11958;50.836;4.438;2022-12-18T22:31:53;2.70;88.90
23560;DHT22;11958;50.836;4.438;2022-12-18T22:34:19;2.90;88.80
23560;DHT22;11958;50.836;4.438;2022-12-18T22:36:46;3.10;89.10
23560;DHT22;11958;50.836;4.438;2022-12-18T22:39:21;2.90;88.80
23560;DHT22;11958;50.836;4.438;2022-12-18T22:41:47;3.40;88.50
23560;DHT22;11958;50.836;4.438;2022-12-18T22:44:13;3.00;88.20
23560;DHT22;11958;50.836;4.438;2022-12-18T22:46:41;3.50;88.40
23560;DHT22;11958;50.836;4.438;2022-12-18T22:49:11;3.40;87.70
23560;DHT22;11958;50.836;4.438;2022-12-18T22:51:37;3.50;87.50
23560;DHT22;11958;50.836;4.438;2022-12-18T22:54:03;3.40;88.30
23560;DHT22;11958;50.836;4.438;2022-12-18T22:56:28;3.50;88.30
23560;DHT22;11958;50.836;4.438;2022-12-18T22:58:54;3.20;87.90
23560;DHT22;11958;50.836;4.438;2022-12-18T23:01:25;3.20;88.70
23560;DHT22;11958;50.836;4.438;2022-12-18T23:03:51;3.20;89.20
23560;DHT22;11958;50.836;4.438;2022-12-18T23:06:21;3.40;88.90
23560;DHT22;11958;50.836;4.438;2022-12-18T23:08:48;3.70;88.20
23560;DHT22;11958;50.836;4.438;2022-12-18T23:11:15;3.20;89.50
23560;DHT22;11958;50.836;4.438;2022-12-18T23:13:41;3.70;88.60
23560;DHT22;11958;50.836;4.438;2022-12-18T23:16:10;3.50;88.00
23560;DHT22;11958;50.836;4.438;2022-12-18T23:18:36;3.30;89.00
23560;DHT22;11958;50.836;4.438;2022-12-18T23:21:06;3.70;88.20
23560;DHT22;11958;50.836;4.438;2022-12-18T23:23:34;3.50;87.60
23560;DHT22;11958;50.836;4.438;2022-12-18T23:26:05;3.70;88.80
23560;DHT22;11958;50.836;4.438;2022-12-18T23:28:32;3.60;88.60
23560;DHT22;11958;50.836;4.438;2022-12-18T23:31:13;3.70;88.00